createdAt,value
2022-12-18T00:01:18.545Z,-3.88
2022-12-18T00:03:46.303Z,-3.99
2022-12-18T00:06:15.505Z,-3.96
2022-12-18T00:08:42.970Z,-3.96
2022-12-18T00:11:12.769Z,-3.85
2022-12-18T00:13:39.923Z,-3.82
2022-12-18T00:16:10.700Z,-3.78
2022-12-18T00:18:37.596Z,-3.76
2022-12-18T00:21:06.823Z,-3.78
2022-12-18T00:23:35.747Z,-3.83
2022-12-18T00:26:06.151Z,-3.85
2022-12-18T00:28:33.442Z,-3.97
2022-12-18T00:31:11.730Z,-3.86
2022-12-18T00:33:39.130Z,-3.79
2022-12-18T00:36:27.278Z,-3.83
2022-12-18T00:38:58.454Z,-3.74
2022-12-18T00:41:44.065Z,-3.71
2022-12-18T00:44:13.503Z,-3.74
2022-12-18T00:46:40.533Z,-3.68
2022-12-18T00:49:07.537Z,-3.79
2022-12-18T00:51:34.135Z,-3.76
2022-12-18T00:54:01.486Z,-3.78
2022-12-18T00:56:27.992Z,-3.81
2022-12-18T00:58:54.827Z,-3.92
2022-12-18T01:01:21.524Z,-3.73
2022-12-18T01:03:48.478Z,-3.88
2022-12-18T01:06:17.562Z,-3.86
2022-12-18T01:08:45.286Z,-3.90
2022-12-18T01:11:16.332Z,-3.92
2022-12-18T01:13:43.476Z,-4.19
2022-12-18T01:16:12.865Z,-3.98
2022-12-18T01:18:39.782Z,-3.89
2022-12-18T01:21:08.482Z,-3.96
2022-12-18T01:23:37.689Z,-3.99
2022-12-18T01:26:13.711Z,-4.08
2022-12-18T01:28:40.983Z,-4.24
2022-12-18T01:31:28.148Z,-4.10
2022-12-18T01:33:55.438Z,-4.22
2022-12-18T01:36:23.557Z,-4.27
2022-12-18T01:38:51.200Z,-4.39
2022-12-18T01:41:25.076Z,-4.46
2022-12-18T01:43:58.199Z,-4.85
2022-12-18T01:46:26.508Z,-4.50
2022-12-18T01:49:01.739Z,-4.56
2022-12-18T01:51:30.513Z,-4.60
2022-12-18T01:54:00.056Z,-4.58
2022-12-18T01:56:26.757Z,-4.69
2022-12-18T01:59:03.275Z,-4.81
2022-12-18T02:01:31.960Z,-4.64
2022-12-18T02:04:24.208Z,-4.67
2022-12-18T02:07:12.033Z,-4.70
2022-12-18T02:09:48.653Z,-4.78
2022-12-18T02:12:24.834Z,-4.69
2022-12-18T02:15:09.498Z,-4.76
2022-12-18T02:17:48.736Z,-4.91
2022-12-18T02:20:19.256Z,-4.56
2022-12-18T02:23:02.060Z,-4.58
2022-12-18T02:26:03.152Z,-4.55
2022-12-18T02:28:35.570Z,-4.55
2022-12-18T02:31:11.230Z,-4.59
2022-12-18T02:33:40.291Z,-4.52
2022-12-18T02:36:08.889Z,-4.44
2022-12-18T02:38:36.178Z,-4.46
2022-12-18T02:41:11.357Z,-4.49
2022-12-18T02:43:39.340Z,-4.38
2022-12-18T02:46:47.444Z,-4.36
2022-12-18T02:49:31.409Z,-4.45
2022-12-18T02:52:07.211Z,-4.40
2022-12-18T02:54:42.144Z,-4.39
2022-12-18T02:57:19.253Z,-4.33
2022-12-18T03:00:12.939Z,-4.32
2022-12-18T03:02:47.620Z,-4.29
2022-12-18T03:05:22.048Z,-4.27
2022-12-18T03:07:51.833Z,-4.24
2022-12-18T03:10:25.926Z,-4.26
2022-12-18T03:12:57.936Z,-4.30
2022-12-18T03:15:31.428Z,-4.24
2022-12-18T03:18:14.081Z,-4.31
2022-12-18T03:20:45.058Z,-4.30
2022-12-18T03:23:18.316Z,-4.37
2022-12-18T03:25:50.411Z,-4.45
2022-12-18T03:28:21.313Z,-4.57
2022-12-18T03:30:57.552Z,-4.51
2022-12-18T03:33:33.087Z,-4.44
2022-12-18T03:35:59.694Z,-4.49
2022-12-18T03:38:26.336Z,-4.65
2022-12-18T03:41:25.093Z,-4.51
2022-12-18T03:44:16.818Z,-4.50
2022-12-18T03:47:10.708Z,-4.56
2022-12-18T03:49:47.189Z,-4.52
2022-12-18T03:52:39.287Z,-4.62
2022-12-18T03:55:09.405Z,-4.58
2022-12-18T03:57:36.976Z,-4.56
2022-12-18T04:00:13.735Z,-4.53
2022-12-18T04:02:57.988Z,-4.56
2022-12-18T04:05:34.972Z,-4.95
2022-12-18T04:08:03.056Z,-4.67
2022-12-18T04:10:31.175Z,-4.61
2022-12-18T04:12:59.769Z,-4.59
2022-12-18T04:15:27.116Z,-4.57
2022-12-18T04:17:53.754Z,-4.59
2022-12-18T04:20:23.714Z,-4.54
2022-12-18T04:22:50.272Z,-4.50
2022-12-18T04:25:19.349Z,-4.48
2022-12-18T04:28:05.356Z,-4.49
2022-12-18T04:30:32.637Z,-4.83
2022-12-18T04:32:59.423Z,-4.39
2022-12-18T04:35:26.427Z,-4.55
2022-12-18T04:37:52.961Z,-4.43
2022-12-18T04:40:20.211Z,-4.36
2022-12-18T04:42:48.810Z,-4.47
2022-12-18T04:45:15.482Z,-4.43
2022-12-18T04:47:42.004Z,-4.44
2022-12-18T04:50:08.823Z,-4.41
2022-12-18T04:52:35.400Z,-4.50
2022-12-18T04:55:01.959Z,-4.36
2022-12-18T04:57:28.592Z,-4.30
2022-12-18T04:59:55.102Z,-4.32
2022-12-18T05:02:21.740Z,-4.62
2022-12-18T05:04:48.290Z,-4.32
2022-12-18T05:07:14.831Z,-4.32
2022-12-18T05:09:41.399Z,-4.44
2022-12-18T05:12:08.336Z,-4.47
2022-12-18T05:14:34.908Z,-4.40
2022-12-18T05:17:01.534Z,-4.51
2022-12-18T05:19:28.074Z,-4.52
2022-12-18T05:21:54.623Z,-4.55
2022-12-18T05:24:21.221Z,-4.58
2022-12-18T05:26:47.721Z,-4.63
2022-12-18T05:29:14.337Z,-4.70
2022-12-18T05:31:41.639Z,-4.64
2022-12-18T05:34:09.686Z,-4.53
2022-12-18T05:36:37.687Z,-4.60
2022-12-18T05:39:05.341Z,-4.59
2022-12-18T05:41:32.670Z,-4.64
2022-12-18T05:43:59.503Z,-4.66
2022-12-18T05:46:26.840Z,-4.63
2022-12-18T05:48:53.530Z,-4.59
2022-12-18T05:51:22.733Z,-4.63
2022-12-18T05:53:49.313Z,-4.61
2022-12-18T05:56:20.278Z,-4.65
2022-12-18T05:58:47.599Z,-4.69
2022-12-18T06:01:24.170Z,-4.77
2022-12-18T06:03:50.864Z,-4.72
2022-12-18T06:06:20.462Z,-4.69
2022-12-18T06:08:47.485Z,-4.75
2022-12-18T06:11:14.568Z,-4.67
2022-12-18T06:13:41.341Z,-4.70
2022-12-18T06:16:09.181Z,-4.55
2022-12-18T06:18:35.769Z,-4.48
2022-12-18T06:21:02.814Z,-4.44
2022-12-18T06:23:29.356Z,-4.42
2022-12-18T06:25:55.987Z,-4.48
2022-12-18T06:28:22.532Z,-4.52
2022-12-18T06:30:49.573Z,-4.49
2022-12-18T06:33:16.947Z,-4.77
2022-12-18T06:35:43.480Z,-4.65
2022-12-18T06:38:10.007Z,-4.53
2022-12-18T06:40:38.998Z,-4.65
2022-12-18T06:43:05.908Z,-4.51
2022-12-18T06:45:32.538Z,-4.55
2022-12-18T06:47:59.080Z,-4.37
2022-12-18T06:50:25.789Z,-4.30
2022-12-18T06:52:52.314Z,-4.27
2022-12-18T06:55:19.110Z,-4.25
2022-12-18T06:57:45.898Z,-4.29
2022-12-18T07:00:12.745Z,-4.34
2022-12-18T07:02:39.727Z,-4.31
2022-12-18T07:05:10.680Z,-4.36
2022-12-18T07:07:38.098Z,-4.41
2022-12-18T07:10:05.184Z,-4.37
2022-12-18T07:12:31.690Z,-4.53
2022-12-18T07:14:58.224Z,-4.42
2022-12-18T07:17:24.795Z,-4.43
2022-12-18T07:19:51.331Z,-4.52
2022-12-18T07:22:17.836Z,-4.46
2022-12-18T07:24:44.375Z,-4.40
2022-12-18T07:27:10.911Z,-4.44
2022-12-18T07:29:37.398Z,-4.40
2022-12-18T07:32:05.152Z,-4.39
2022-12-18T07:34:31.672Z,-4.40
2022-12-18T07:36:58.286Z,-4.39
2022-12-18T07:39:24.817Z,-4.27
2022-12-18T07:42:09.801Z,-4.26
2022-12-18T07:44:37.244Z,-4.28
2022-12-18T07:47:06.619Z,-4.33
2022-12-18T07:49:37.490Z,-4.48
2022-12-18T07:52:04.875Z,-4.43
2022-12-18T07:54:31.497Z,-4.24
2022-12-18T07:56:58.028Z,-4.33
2022-12-18T07:59:24.545Z,-4.22
2022-12-18T08:01:51.216Z,-4.19
2022-12-18T08:04:18.042Z,-4.48
2022-12-18T08:06:47.701Z,-4.22
2022-12-18T08:09:14.797Z,-4.13
2022-12-18T08:11:41.349Z,-4.07
2022-12-18T08:14:08.161Z,-4.17
2022-12-18T08:16:35.930Z,-4.07
2022-12-18T08:19:03.339Z,-4.09
2022-12-18T08:21:32.319Z,-4.12
2022-12-18T08:24:01.150Z,-4.00
2022-12-18T08:26:30.527Z,-4.01
2022-12-18T08:28:59.130Z,-3.99
2022-12-18T08:31:27.298Z,-4.06
2022-12-18T08:33:55.336Z,-3.81
2022-12-18T08:36:22.987Z,-3.76
2022-12-18T08:38:50.419Z,-3.71
2022-12-18T08:41:18.239Z,-3.65
2022-12-18T08:44:03.538Z,-3.60
2022-12-18T08:46:36.553Z,-3.54
2022-12-18T08:49:07.381Z,-3.53
2022-12-18T08:51:34.920Z,-3.55
2022-12-18T08:54:02.068Z,-3.69
2022-12-18T08:56:30.857Z,-3.60
2022-12-18T08:58:57.959Z,-3.55
2022-12-18T09:01:25.324Z,-3.56
2022-12-18T09:03:52.457Z,-3.33
2022-12-18T09:06:20.697Z,-3.81
2022-12-18T09:08:47.465Z,-3.34
2022-12-18T09:11:21.193Z,-3.36
2022-12-18T09:13:47.916Z,-3.38
2022-12-18T09:16:14.561Z,-3.59
2022-12-18T09:18:42.332Z,-3.50
2022-12-18T09:21:18.115Z,-3.51
2022-12-18T09:23:45.052Z,-3.52
2022-12-18T09:26:11.630Z,-3.39
2022-12-18T09:28:38.990Z,-3.38
2022-12-18T09:31:08.784Z,-3.46
2022-12-18T09:33:38.878Z,-2.96
